Time;durP1;ratioP1;P1;durP2;ratioP2;P2;SDS_P1;SDS_P2;PMS_P1;PMS_P2;Temp;Humidity;BMP_temperature;BMP_pressure;BME280_temperature;BME280_humidity;BME280_pressure;Samples;Min_cycle;Max_cycle;Signal;HPM_P1;HPM_P2
2022/07/10 00:02:14;;;;;;;0.75;0.75;;;;;;;;;;5074349;28;20200;-81
2022/07/10 00:04:41;;;;;;;0.60;0.60;;;;;;;;;;5075109;28;20283;-82
2022/07/10 00:07:09;;;;;;;3.47;2.70;;;;;;;;;;5074820;28;20207;-82
2022/07/10 00:09:37;;;;;;;2.15;1.00;;;;;;;;;;5075377;28;20225;-81
2022/07/10 00:12:05;;;;;;;1.95;1.08;;;;;;;;;;5074447;28;20288;-81
2022/07/10 00:14:33;;;;;;;0.77;0.77;;;;;;;;;;5074664;28;20208;-81
2022/07/10 00:17:00;;;;;;;1.27;0.80;;;;;;;;;;5076468;28;20270;-82
2022/07/10 00:19:29;;;;;;;1.23;0.95;;;;;;;;;;5078779;28;20244;-81
2022/07/10 00:21:57;;;;;;;0.40;0.40;;;;;;;;;;5080269;28;20204;-81
2022/07/10 00:24:24;;;;;;;1.48;0.90;;;;;;;;;;5080083;28;20196;-83
2022/07/10 00:26:52;;;;;;;1.55;0.80;;;;;;;;;;5078283;28;20239;-82
2022/07/10 00:29:19;;;;;;;2.03;1.10;;;;;;;;;;5078415;28;20308;-84
2022/07/10 00:31:47;;;;;;;0.90;0.90;;;;;;;;;;5078712;28;20205;-80
2022/07/10 00:34:14;;;;;;;1.52;1.02;;;;;;;;;;5078164;28;20221;-81
2022/07/10 00:36:43;;;;;;;2.80;0.80;;;;;;;;;;5077943;28;20284;-80
2022/07/10 00:39:11;;;;;;;1.50;1.00;;;;;;;;;;5078151;28;20220;-81
2022/07/10 00:41:38;;;;;;;2.10;0.70;;;;;;;;;;5076385;28;20288;-81
2022/07/10 00:44:06;;;;;;;3.53;0.90;;;;;;;;;;5077603;28;20283;-81
2022/07/10 00:46:35;;;;;;;0.93;0.93;;;;;;;;;;5077791;28;20213;-81
2022/07/10 00:49:02;;;;;;;2.17;0.80;;;;;;;;;;5077481;28;20288;-81
2022/07/10 00:51:33;;;;;;;2.05;0.80;;;;;;;;;;5095578;23;20243;-78
2022/07/10 00:54:02;;;;;;;2.00;0.73;;;;;;;;;;5074246;28;20209;-78
2022/07/10 00:56:30;;;;;;;1.95;0.70;;;;;;;;;;5074336;28;20661;-78
2022/07/10 00:58:58;;;;;;;1.52;0.88;;;;;;;;;;5074443;28;20635;-78
2022/07/10 01:01:25;;;;;;;1.73;1.00;;;;;;;;;;5060067;28;20605;-78
2022/07/10 01:03:53;;;;;;;0.73;0.73;;;;;;;;;;5052503;28;20229;-78
2022/07/10 01:06:20;;;;;;;1.55;0.85;;;;;;;;;;5045914;28;20285;-78
2022/07/10 01:08:48;;;;;;;2.17;0.93;;;;;;;;;;5053319;28;20253;-78
2022/07/10 01:11:17;;;;;;;0.47;0.47;;;;;;;;;;5053530;28;20600;-78
2022/07/10 01:13:45;;;;;;;1.20;0.77;;;;;;;;;;5050590;28;20686;-78
2022/07/10 01:16:13;;;;;;;2.17;1.02;;;;;;;;;;5054131;28;20288;-78
2022/07/10 01:18:41;;;;;;;0.90;0.75;;;;;;;;;;5054110;28;20289;-78
2022/07/10 01:21:25;;;;;;;1.48;0.98;;;;;;;;;;5053895;28;20308;-79
2022/07/10 01:23:52;;;;;;;1.77;1.05;;;;;;;;;;5053328;28;20212;-78
2022/07/10 01:26:21;;;;;;;3.67;0.90;;;;;;;;;;5054201;28;20280;-78
2022/07/10 01:28:50;;;;;;;1.35;1.00;;;;;;;;;;5053668;28;20257;-78
2022/07/10 01:31:19;;;;;;;0.68;0.68;;;;;;;;;;5052507;28;20222;-78
2022/07/10 01:33:47;;;;;;;1.50;1.40;;;;;;;;;;5053084;28;20225;-78
2022/07/10 01:36:22;;;;;;;1.25;1.15;;;;;;;;;;5052906;28;20209;-77
2022/07/10 01:38:51;;;;;;;0.65;0.55;;;;;;;;;;5053161;28;20205;-78
2022/07/10 01:41:19;;;;;;;0.40;0.40;;;;;;;;;;5053218;28;20221;-79
2022/07/10 01:43:48;;;;;;;0.60;0.60;;;;;;;;;;5052766;28;20671;-78
2022/07/10 01:46:16;;;;;;;0.93;0.70;;;;;;;;;;5053412;28;20233;-79
2022/07/10 01:48:44;;;;;;;1.05;0.68;;;;;;;;;;5053037;28;20212;-79
2022/07/10 01:51:12;;;;;;;3.72;1.10;;;;;;;;;;5053011;28;20321;-78
2022/07/10 01:53:41;;;;;;;1.83;0.90;;;;;;;;;;5052828;28;20292;-78
2022/07/10 01:56:11;;;;;;;1.15;0.90;;;;;;;;;;5053236;28;20736;-78
2022/07/10 01:58:39;;;;;;;0.85;0.80;;;;;;;;;;5052895;28;20230;-79
2022/07/10 02:01:07;;;;;;;2.30;0.70;;;;;;;;;;5052974;28;20217;-78
2022/07/10 02:06:19;;;;;;;1.05;0.85;;;;;;;;;;5053167;28;20586;-78
2022/07/10 02:08:48;;;;;;;1.25;0.85;;;;;;;;;;5053000;28;20308;-78
2022/07/10 02:11:16;;;;;;;0.90;0.80;;;;;;;;;;5052945;28;20253;-79
2022/07/10 02:13:43;;;;;;;1.15;0.90;;;;;;;;;;5051923;28;20288;-78
2022/07/10 02:16:11;;;;;;;1.23;0.60;;;;;;;;;;5052754;28;20745;-79
2022/07/10 02:18:39;;;;;;;1.92;1.02;;;;;;;;;;5053504;28;20204;-78
2022/07/10 02:21:07;;;;;;;1.45;1.10;;;;;;;;;;5053155;28;20224;-78
2022/07/10 02:23:35;;;;;;;0.85;0.85;;;;;;;;;;5052335;28;20229;-78
2022/07/10 02:26:04;;;;;;;2.75;0.95;;;;;;;;;;5052883;28;20298;-78
2022/07/10 02:28:32;;;;;;;1.73;1.30;;;;;;;;;;5052679;28;20296;-78
2022/07/10 02:31:00;;;;;;;1.35;0.88;;;;;;;;;;5052463;28;20256;-78
2022/07/10 02:33:27;;;;;;;1.35;0.77;;;;;;;;;;5051845;28;20292;-78
2022/07/10 02:35:55;;;;;;;0.82;0.82;;;;;;;;;;5052221;28;20240;-78
2022/07/10 02:38:22;;;;;;;2.03;1.08;;;;;;;;;;5052108;28;20237;-78
2022/07/10 02:40:50;;;;;;;0.88;0.88;;;;;;;;;;5051638;28;20249;-79
2022/07/10 02:43:19;;;;;;;1.60;1.50;;;;;;;;;;5051508;28;20217;-78
2022/07/10 02:45:46;;;;;;;1.38;1.08;;;;;;;;;;5051588;28;20207;-78
2022/07/10 02:48:15;;;;;;;0.75;0.75;;;;;;;;;;5051587;28;20244;-79
2022/07/10 02:50:42;;;;;;;1.08;0.98;;;;;;;;;;5051688;28;20317;-78
2022/07/10 02:53:10;;;;;;;1.33;0.80;;;;;;;;;;5050904;28;20214;-78
2022/07/10 02:55:37;;;;;;;1.75;0.90;;;;;;;;;;5051727;28;20296;-78
2022/07/10 02:58:05;;;;;;;0.80;0.77;;;;;;;;;;5051618;28;20292;-78
2022/07/10 03:00:34;;;;;;;3.20;0.82;;;;;;;;;;5051804;28;20214;-78
2022/07/10 03:03:01;;;;;;;1.27;1.17;;;;;;;;;;5051020;28;20296;-78
2022/07/10 03:05:29;;;;;;;1.67;0.82;;;;;;;;;;5051335;28;20251;-78
2022/07/10 03:07:56;;;;;;;1.95;1.15;;;;;;;;;;5051282;28;20296;-78
2022/07/10 03:10:24;;;;;;;1.05;0.80;;;;;;;;;;5051789;28;20235;-78
2022/07/10 03:12:51;;;;;;;1.05;0.93;;;;;;;;;;5050758;28;20284;-78
2022/07/10 03:15:19;;;;;;;0.82;0.82;;;;;;;;;;5051332;28;20292;-78
2022/07/10 03:17:48;;;;;;;1.75;0.95;;;;;;;;;;5051258;28;20292;-78
2022/07/10 03:20:15;;;;;;;5.60;1.67;;;;;;;;;;5051113;28;20308;-78
2022/07/10 03:22:43;;;;;;;2.25;0.90;;;;;;;;;;5050819;28;20284;-78
2022/07/10 03:25:11;;;;;;;4.07;1.23;;;;;;;;;;5051071;28;20233;-78
2022/07/10 03:27:41;;;;;;;1.45;0.80;;;;;;;;;;5051484;28;20233;-78
2022/07/10 03:30:10;;;;;;;2.28;1.10;;;;;;;;;;5049223;28;20666;-77
2022/07/10 03:32:38;;;;;;;1.75;1.02;;;;;;;;;;5050564;28;20256;-78
2022/07/10 03:35:08;;;;;;;2.20;1.52;;;;;;;;;;5051467;28;20288;-78
2022/07/10 03:37:36;;;;;;;1.13;0.90;;;;;;;;;;5051625;28;20610;-78
2022/07/10 03:40:04;;;;;;;2.28;1.30;;;;;;;;;;5050918;28;20781;-78
2022/07/10 03:42:31;;;;;;;1.42;0.93;;;;;;;;;;5050472;28;20677;-78
2022/07/10 03:44:59;;;;;;;2.08;0.88;;;;;;;;;;5051425;28;20738;-78
2022/07/10 03:47:26;;;;;;;0.73;0.73;;;;;;;;;;5051087;28;20293;-79
2022/07/10 03:49:54;;;;;;;2.45;1.20;;;;;;;;;;5050751;28;20212;-78
2022/07/10 03:52:23;;;;;;;0.70;0.70;;;;;;;;;;5050322;28;20735;-79
2022/07/10 03:54:50;;;;;;;2.40;1.33;;;;;;;;;;5045675;28;20281;-78
2022/07/10 04:00:03;;;;;;;4.13;1.42;;;;;;;;;;5035147;28;20225;-78
2022/07/10 04:02:30;;;;;;;1.55;1.45;;;;;;;;;;5034121;28;20205;-77
2022/07/10 04:04:58;;;;;;;1.35;0.80;;;;;;;;;;5042174;28;20208;-78
2022/07/10 04:07:27;;;;;;;4.75;1.17;;;;;;;;;;5054774;28;20713;-78
2022/07/10 04:09:55;;;;;;;2.45;1.08;;;;;;;;;;5052462;28;20208;-77
2022/07/10 04:12:22;;;;;;;1.75;1.20;;;;;;;;;;5053555;28;20221;-78
2022/07/10 04:14:51;;;;;;;1.13;1.00;;;;;;;;;;5054314;28;20765;-78
2022/07/10 04:17:19;;;;;;;1.90;1.52;;;;;;;;;;5054755;28;20206;-78
2022/07/10 04:19:46;;;;;;;3.47;1.30;;;;;;;;;;5052649;28;20292;-78
2022/07/10 04:22:14;;;;;;;1.52;0.77;;;;;;;;;;5053361;28;20198;-77
2022/07/10 04:24:43;;;;;;;1.75;1.10;;;;;;;;;;5056254;28;20236;-78
2022/07/10 04:27:10;;;;;;;2.05;1.48;;;;;;;;;;5056037;28;20208;-78
2022/07/10 04:29:38;;;;;;;2.50;1.20;;;;;;;;;;5055515;28;20297;-78
2022/07/10 04:32:06;;;;;;;2.65;1.10;;;;;;;;;;5053770;28;20312;-78
2022/07/10 04:34:33;;;;;;;3.28;1.15;;;;;;;;;;5053860;28;20738;-78
2022/07/10 04:37:01;;;;;;;2.22;1.17;;;;;;;;;;5053620;28;20293;-78
2022/07/10 04:39:29;;;;;;;1.70;0.90;;;;;;;;;;5053621;28;20198;-78
2022/07/10 04:41:57;;;;;;;1.65;0.80;;;;;;;;;;5053393;28;20225;-77
2022/07/10 04:44:25;;;;;;;1.45;1.00;;;;;;;;;;5053633;28;20648;-77
2022/07/10 04:46:53;;;;;;;1.45;1.00;;;;;;;;;;5053592;28;20297;-78
2022/07/10 04:49:20;;;;;;;2.47;1.27;;;;;;;;;;5053935;28;20202;-78
2022/07/10 04:51:48;;;;;;;1.85;0.90;;;;;;;;;;5052569;28;20320;-77
2022/07/10 04:54:16;;;;;;;1.20;1.10;;;;;;;;;;5053738;28;20677;-78
2022/07/10 04:56:43;;;;;;;2.38;0.90;;;;;;;;;;5053677;28;20292;-78
2022/07/10 04:59:12;;;;;;;1.40;1.00;;;;;;;;;;5053389;28;20201;-77
2022/07/10 05:01:40;;;;;;;1.30;1.00;;;;;;;;;;5052917;28;20301;-78
2022/07/10 05:04:08;;;;;;;1.63;1.00;;;;;;;;;;5052647;28;20241;-78
2022/07/10 05:06:35;;;;;;;2.17;1.00;;;;;;;;;;5052994;28;20292;-78
2022/07/10 05:09:03;;;;;;;2.28;1.02;;;;;;;;;;5053450;28;20296;-78
2022/07/10 05:11:31;;;;;;;3.00;1.42;;;;;;;;;;5053338;28;20324;-78
2022/07/10 05:13:58;;;;;;;3.10;2.30;;;;;;;;;;5053092;28;20197;-78
2022/07/10 05:16:27;;;;;;;1.35;1.08;;;;;;;;;;5053400;28;20207;-78
2022/07/10 05:18:55;;;;;;;2.47;1.38;;;;;;;;;;5053776;28;20580;-78
2022/07/10 05:21:22;;;;;;;1.83;1.10;;;;;;;;;;5053551;28;20268;-78
2022/07/10 05:23:50;;;;;;;1.80;0.88;;;;;;;;;;5052737;28;20210;-78
2022/07/10 05:26:17;;;;;;;2.85;0.98;;;;;;;;;;5053413;28;20296;-78
2022/07/10 05:28:45;;;;;;;1.13;1.00;;;;;;;;;;5052961;28;20733;-77
2022/07/10 05:31:12;;;;;;;1.58;1.05;;;;;;;;;;5052859;28;20316;-77
2022/07/10 05:33:42;;;;;;;1.75;1.13;;;;;;;;;;5052152;28;20202;-78
2022/07/10 05:36:11;;;;;;;1.10;1.00;;;;;;;;;;5053348;28;20205;-78
2022/07/10 05:38:38;;;;;;;6.13;1.20;;;;;;;;;;5053040;28;20228;-78
2022/07/10 05:41:06;;;;;;;2.90;1.60;;;;;;;;;;5053821;28;20241;-80
2022/07/10 05:43:33;;;;;;;4.38;1.20;;;;;;;;;;5055257;28;20278;-80
2022/07/10 05:46:01;;;;;;;3.00;1.23;;;;;;;;;;5055946;28;20244;-80
2022/07/10 05:48:28;;;;;;;3.85;1.20;;;;;;;;;;5055656;28;20206;-82
2022/07/10 05:50:57;;;;;;;1.42;1.33;;;;;;;;;;5055964;28;20249;-81
2022/07/10 05:53:25;;;;;;;1.13;1.02;;;;;;;;;;5055849;28;20285;-81
2022/07/10 05:55:53;;;;;;;2.58;1.40;;;;;;;;;;5056037;28;20241;-82
2022/07/10 05:58:20;;;;;;;1.40;1.00;;;;;;;;;;5055965;28;20284;-81
2022/07/10 06:00:49;;;;;;;1.42;1.10;;;;;;;;;;5055893;28;20264;-81
2022/07/10 06:03:18;;;;;;;1.70;1.20;;;;;;;;;;5054767;28;20198;-83
2022/07/10 06:05:45;;;;;;;2.20;1.52;;;;;;;;;;5056692;28;20209;-82
2022/07/10 06:08:15;;;;;;;1.85;1.10;;;;;;;;;;5055303;28;20646;-82
2022/07/10 06:10:43;;;;;;;1.45;0.90;;;;;;;;;;5053955;28;20260;-82
2022/07/10 06:13:11;;;;;;;2.13;1.10;;;;;;;;;;5054577;28;20225;-83
2022/07/10 06:15:39;;;;;;;2.63;1.10;;;;;;;;;;5055017;28;20222;-83
2022/07/10 06:18:06;;;;;;;2.47;1.27;;;;;;;;;;5055333;28;20239;-81
2022/07/10 06:20:34;;;;;;;1.33;1.20;;;;;;;;;;5053881;28;20260;-83
2022/07/10 06:23:02;;;;;;;2.80;0.80;;;;;;;;;;5054308;28;20288;-82
2022/07/10 06:25:31;;;;;;;1.15;0.70;;;;;;;;;;5054924;28;20625;-82
2022/07/10 06:27:58;;;;;;;1.98;1.00;;;;;;;;;;5055306;28;20244;-83
2022/07/10 06:30:26;;;;;;;2.83;2.20;;;;;;;;;;5056375;28;20260;-81
2022/07/10 06:32:54;;;;;;;0.95;0.85;;;;;;;;;;5053664;28;20217;-82
2022/07/10 06:35:22;;;;;;;1.75;0.90;;;;;;;;;;5055285;28;20692;-82
2022/07/10 06:37:51;;;;;;;3.10;1.00;;;;;;;;;;5053944;28;20205;-80
2022/07/10 06:40:20;;;;;;;1.02;0.82;;;;;;;;;;5053543;28;20233;-82
2022/07/10 06:42:49;;;;;;;1.00;1.00;;;;;;;;;;5047382;28;20214;-83
2022/07/10 06:45:16;;;;;;;4.05;1.23;;;;;;;;;;5054466;28;20221;-84
2022/07/10 06:47:59;;;;;;;5.88;1.27;;;;;;;;;;5053816;28;20225;-83
2022/07/10 06:50:29;;;;;;;1.38;1.02;;;;;;;;;;5062071;23;20217;-82
2022/07/10 06:52:57;;;;;;;2.95;1.40;;;;;;;;;;5075416;28;20296;-82
2022/07/10 06:55:25;;;;;;;1.10;1.00;;;;;;;;;;5056222;28;20271;-81
2022/07/10 06:57:54;;;;;;;1.10;0.93;;;;;;;;;;5055754;28;20233;-82
2022/07/10 07:00:22;;;;;;;2.65;1.10;;;;;;;;;;5056368;28;20595;-83
2022/07/10 07:02:51;;;;;;;2.67;1.25;;;;;;;;;;5055253;28;20232;-83
2022/07/10 07:05:19;;;;;;;1.50;0.90;;;;;;;;;;5056561;28;20221;-80
2022/07/10 07:07:46;;;;;;;2.35;1.02;;;;;;;;;;5057485;28;20232;-82
2022/07/10 07:10:14;;;;;;;1.95;0.93;;;;;;;;;;5057947;28;20197;-81
2022/07/10 07:12:42;;;;;;;2.58;1.30;;;;;;;;;;5056383;28;20248;-81
2022/07/10 07:15:12;;;;;;;5.25;1.10;;;;;;;;;;5056678;28;20225;-83
2022/07/10 07:18:07;;;;;;;1.77;1.10;;;;;;;;;;5056276;28;20185;-82
2022/07/10 07:23:20;;;;;;;1.42;0.93;;;;;;;;;;5056843;28;20256;-82
2022/07/10 07:25:48;;;;;;;1.55;0.80;;;;;;;;;;5057268;28;20284;-80
2022/07/10 07:28:19;;;;;;;1.35;1.20;;;;;;;;;;5057363;28;20237;-83
2022/07/10 07:30:49;;;;;;;1.13;0.90;;;;;;;;;;5086643;22;20571;-82
2022/07/10 07:33:16;;;;;;;1.20;1.10;;;;;;;;;;5098460;28;20273;-85
2022/07/10 07:35:44;;;;;;;3.20;1.00;;;;;;;;;;5101017;28;20240;-85
2022/07/10 07:38:11;;;;;;;0.95;0.63;;;;;;;;;;5099531;28;20220;-83
2022/07/10 07:40:39;;;;;;;1.00;0.90;;;;;;;;;;5089142;28;20264;-84
2022/07/10 07:43:07;;;;;;;1.88;1.25;;;;;;;;;;5078658;28;20266;-86
2022/07/10 07:45:34;;;;;;;2.13;1.20;;;;;;;;;;5078698;28;20229;-86
2022/07/10 07:48:03;;;;;;;1.73;1.17;;;;;;;;;;5079388;28;20657;-86
2022/07/10 07:50:33;;;;;;;0.82;0.82;;;;;;;;;;5079269;28;20259;-84
2022/07/10 07:53:01;;;;;;;1.83;0.90;;;;;;;;;;5079453;28;20209;-85
2022/07/10 07:55:30;;;;;;;1.13;0.90;;;;;;;;;;5080209;28;20280;-84
2022/07/10 07:57:58;;;;;;;1.00;0.90;;;;;;;;;;5080278;28;20236;-84
2022/07/10 08:00:29;;;;;;;3.53;1.05;;;;;;;;;;5080380;28;20216;-83
2022/07/10 08:02:58;;;;;;;2.08;1.05;;;;;;;;;;5080424;28;20185;-85
2022/07/10 08:05:27;;;;;;;0.93;0.90;;;;;;;;;;5080586;28;20197;-83
2022/07/10 08:07:56;;;;;;;1.25;0.80;;;;;;;;;;5080820;28;20269;-83
2022/07/10 08:10:27;;;;;;;2.42;0.90;;;;;;;;;;5080508;28;20271;-83
2022/07/10 08:12:55;;;;;;;3.03;2.13;;;;;;;;;;5079309;28;20205;-83
2022/07/10 08:15:23;;;;;;;1.75;0.80;;;;;;;;;;5083233;28;20219;-82
2022/07/10 08:17:53;;;;;;;3.53;1.00;;;;;;;;;;5082552;28;20686;-82
2022/07/10 08:20:21;;;;;;;3.00;1.00;;;;;;;;;;5089119;28;20229;-83
2022/07/10 08:22:50;;;;;;;2.70;1.95;;;;;;;;;;5087239;28;20197;-83
2022/07/10 08:25:17;;;;;;;1.02;0.93;;;;;;;;;;5087965;28;20193;-82
2022/07/10 08:27:45;;;;;;;1.42;1.02;;;;;;;;;;5086595;28;20626;-84
2022/07/10 08:30:13;;;;;;;1.42;0.85;;;;;;;;;;5086659;28;20232;-83
2022/07/10 08:32:42;;;;;;;3.90;1.15;;;;;;;;;;5087433;28;20205;-82
2022/07/10 08:35:10;;;;;;;2.17;1.13;;;;;;;;;;5086923;28;20212;-84
2022/07/10 08:37:41;;;;;;;2.22;1.27;;;;;;;;;;5086762;28;20208;-84
2022/07/10 08:40:13;;;;;;;0.60;0.60;;;;;;;;;;5085871;28;20256;-83
2022/07/10 08:42:41;;;;;;;1.48;0.90;;;;;;;;;;5086242;28;20196;-82
2022/07/10 08:45:10;;;;;;;2.17;1.10;;;;;;;;;;5086424;28;20223;-82
2022/07/10 08:47:38;;;;;;;1.75;1.42;;;;;;;;;;5086670;28;20201;-83
2022/07/10 08:50:08;;;;;;;3.63;1.95;;;;;;;;;;5086052;28;20225;-82
2022/07/10 08:52:44;;;;;;;1.23;1.13;;;;;;;;;;5085564;28;20269;-83
2022/07/10 08:55:15;;;;;;;1.77;1.10;;;;;;;;;;5086168;28;20224;-82
2022/07/10 08:57:44;;;;;;;1.05;0.93;;;;;;;;;;5085917;28;20259;-81
2022/07/10 09:00:12;;;;;;;2.10;1.35;;;;;;;;;;5086733;28;20224;-84
2022/07/10 09:02:40;;;;;;;2.67;1.10;;;;;;;;;;5086880;28;20232;-81
2022/07/10 09:05:09;;;;;;;1.85;0.88;;;;;;;;;;5086457;28;20201;-83
2022/07/10 09:07:37;;;;;;;0.93;0.88;;;;;;;;;;5086327;28;20204;-82
2022/07/10 09:10:10;;;;;;;2.38;1.15;;;;;;;;;;5085588;28;20221;-83
2022/07/10 09:12:53;;;;;;;1.52;0.90;;;;;;;;;;5085759;28;20653;-83
2022/07/10 09:15:23;;;;;;;1.02;0.90;;;;;;;;;;5087163;28;20253;-82
2022/07/10 09:17:53;;;;;;;1.38;1.00;;;;;;;;;;5084978;28;20200;-85
2022/07/10 09:20:32;;;;;;;1.25;0.85;;;;;;;;;;5085939;28;20252;-85
2022/07/10 09:23:10;;;;;;;1.23;0.80;;;;;;;;;;5085703;28;20204;-84
2022/07/10 09:25:38;;;;;;;1.60;0.80;;;;;;;;;;5087030;28;20207;-85
2022/07/10 09:28:07;;;;;;;1.00;0.90;;;;;;;;;;5086227;28;20201;-83
2022/07/10 09:30:36;;;;;;;1.20;0.80;;;;;;;;;;5085322;28;20228;-85
2022/07/10 09:33:19;;;;;;;2.92;0.90;;;;;;;;;;5084700;28;20236;-85
2022/07/10 09:36:16;;;;;;;1.17;0.80;;;;;;;;;;5071875;28;20197;-83
2022/07/10 09:38:53;;;;;;;1.48;0.73;;;;;;;;;;5081829;28;20201;-82
2022/07/10 09:41:23;;;;;;;1.70;1.08;;;;;;;;;;5085056;28;20723;-84
2022/07/10 09:43:55;;;;;;;3.25;2.13;;;;;;;;;;5083849;28;20210;-82
2022/07/10 09:46:25;;;;;;;2.53;0.80;;;;;;;;;;5085866;28;20234;-84
2022/07/10 09:49:10;;;;;;;0.80;0.80;;;;;;;;;;5085369;28;20197;-82
2022/07/10 09:51:39;;;;;;;1.02;0.80;;;;;;;;;;5084248;28;20709;-85
2022/07/10 09:54:09;;;;;;;1.60;1.13;;;;;;;;;;5084517;28;20209;-85
2022/07/10 09:56:46;;;;;;;0.85;0.80;;;;;;;;;;5084514;28;20241;-83
2022/07/10 09:59:16;;;;;;;1.25;1.15;;;;;;;;;;5085121;28;20596;-83
2022/07/10 10:01:46;;;;;;;1.27;1.00;;;;;;;;;;5084725;28;20277;-83
2022/07/10 10:04:15;;;;;;;1.33;0.93;;;;;;;;;;5084404;28;20197;-84
2022/07/10 10:06:43;;;;;;;1.65;0.85;;;;;;;;;;5085456;28;20211;-85
2022/07/10 10:09:16;;;;;;;3.20;1.20;;;;;;;;;;5085080;28;20662;-85
2022/07/10 10:11:46;;;;;;;1.13;1.00;;;;;;;;;;5083883;28;20270;-80
2022/07/10 10:14:17;;;;;;;0.90;0.90;;;;;;;;;;5084953;28;20225;-83
2022/07/10 10:16:46;;;;;;;1.15;0.80;;;;;;;;;;5083635;28;20721;-83
2022/07/10 10:22:00;;;;;;;1.10;1.00;;;;;;;;;;5084010;28;20204;-83
2022/07/10 10:24:28;;;;;;;1.60;1.10;;;;;;;;;;5084488;28;20208;-84
2022/07/10 10:26:56;;;;;;;1.48;0.75;;;;;;;;;;5083859;28;20209;-85
2022/07/10 10:29:25;;;;;;;3.00;1.00;;;;;;;;;;5084962;28;20223;-85
2022/07/10 10:31:53;;;;;;;0.85;0.80;;;;;;;;;;5084245;28;20604;-84
2022/07/10 10:34:42;;;;;;;2.08;1.00;;;;;;;;;;5084236;28;20288;-83
2022/07/10 10:37:36;;;;;;;1.00;1.00;;;;;;;;;;5084949;28;20236;-83
2022/07/10 10:40:06;;;;;;;2.47;1.30;;;;;;;;;;5084625;28;20232;-84
2022/07/10 10:42:35;;;;;;;2.08;1.00;;;;;;;;;;5083759;28;20260;-83
2022/07/10 10:45:35;;;;;;;1.33;1.20;;;;;;;;;;5084645;28;20227;-82
2022/07/10 10:48:05;;;;;;;1.00;1.00;;;;;;;;;;5084119;28;20204;-85
2022/07/10 10:50:41;;;;;;;1.83;1.10;;;;;;;;;;5084520;28;20311;-84
2022/07/10 10:53:17;;;;;;;2.35;1.35;;;;;;;;;;5086135;28;20204;-84
2022/07/10 10:56:24;;;;;;;2.17;0.95;;;;;;;;;;5087336;28;20263;-85
2022/07/10 10:58:52;;;;;;;1.98;1.38;;;;;;;;;;5068854;28;20204;-85
2022/07/10 11:01:30;;;;;;;2.13;1.13;;;;;;;;;;5085329;28;20586;-83
2022/07/10 11:04:19;;;;;;;2.33;1.27;;;;;;;;;;5084320;28;20291;-83
2022/07/10 11:06:49;;;;;;;0.90;0.90;;;;;;;;;;5065413;28;20682;-84
2022/07/10 11:09:27;;;;;;;1.60;1.00;;;;;;;;;;5065440;28;20225;-84
2022/07/10 11:12:04;;;;;;;1.00;0.90;;;;;;;;;;5064673;28;20228;-84
2022/07/10 11:14:33;;;;;;;1.58;1.00;;;;;;;;;;5065011;28;22119;-82
2022/07/10 11:17:02;;;;;;;1.10;1.00;;;;;;;;;;5066204;28;20198;-84
2022/07/10 11:19:32;;;;;;;2.58;1.50;;;;;;;;;;5066332;28;20245;-84
2022/07/10 11:22:44;;;;;;;3.55;2.08;;;;;;;;;;5065167;28;20201;-84
2022/07/10 11:25:38;;;;;;;2.90;1.00;;;;;;;;;;5059718;28;20257;-85
2022/07/10 11:28:09;;;;;;;2.55;0.93;;;;;;;;;;5064283;28;20266;-85
2022/07/10 11:30:47;;;;;;;3.22;0.88;;;;;;;;;;5065188;28;20256;-83
2022/07/10 11:33:18;;;;;;;1.42;0.80;;;;;;;;;;5064257;28;20198;-84
2022/07/10 11:35:51;;;;;;;2.08;0.82;;;;;;;;;;5078053;28;20270;-85
2022/07/10 11:38:22;;;;;;;0.65;0.60;;;;;;;;;;5084487;28;20231;-84
2022/07/10 11:40:50;;;;;;;0.50;0.50;;;;;;;;;;5083707;28;20224;-85
2022/07/10 11:43:20;;;;;;;1.15;0.90;;;;;;;;;;5083660;28;20201;-84
2022/07/10 11:45:47;;;;;;;4.50;1.13;;;;;;;;;;5083141;28;20685;-85
2022/07/10 11:48:23;;;;;;;3.25;0.98;;;;;;;;;;5082755;28;20197;-85
2022/07/10 11:50:51;;;;;;;3.10;0.95;;;;;;;;;;5082809;28;20256;-84
2022/07/10 11:53:25;;;;;;;2.83;0.88;;;;;;;;;;5080833;28;20289;-83
2022/07/10 11:55:53;;;;;;;1.25;0.90;;;;;;;;;;5083592;28;20246;-82
2022/07/10 11:58:22;;;;;;;1.33;0.80;;;;;;;;;;5084087;28;20204;-85
2022/07/10 12:01:01;;;;;;;1.10;1.00;;;;;;;;;;5084056;28;20295;-85
2022/07/10 12:03:30;;;;;;;1.52;0.70;;;;;;;;;;5083270;28;20661;-85
2022/07/10 12:06:04;;;;;;;0.70;0.70;;;;;;;;;;5082734;28;20273;-85
2022/07/10 12:08:32;;;;;;;0.70;0.70;;;;;;;;;;5083014;28;20612;-82
2022/07/10 12:10:59;;;;;;;1.92;1.23;;;;;;;;;;5082245;28;20225;-84
2022/07/10 12:13:27;;;;;;;1.25;0.90;;;;;;;;;;5080821;28;20216;-83
2022/07/10 12:15:54;;;;;;;1.08;0.80;;;;;;;;;;5084937;28;20258;-84
2022/07/10 12:18:24;;;;;;;3.42;1.08;;;;;;;;;;5086279;28;20205;-84
2022/07/10 12:20:53;;;;;;;2.22;0.90;;;;;;;;;;5087293;28;20228;-84
2022/07/10 12:23:22;;;;;;;1.52;1.20;;;;;;;;;;5086670;28;20205;-85
2022/07/10 12:25:51;;;;;;;3.00;1.02;;;;;;;;;;5088981;28;20642;-84
2022/07/10 12:28:18;;;;;;;2.95;1.00;;;;;;;;;;5087922;28;20201;-84
2022/07/10 12:30:49;;;;;;;1.48;0.90;;;;;;;;;;5087426;28;20320;-85
2022/07/10 12:33:19;;;;;;;1.38;0.98;;;;;;;;;;5087079;28;20236;-85
2022/07/10 12:35:54;;;;;;;0.85;0.73;;;;;;;;;;5086866;28;20744;-83
2022/07/10 12:38:23;;;;;;;1.33;1.00;;;;;;;;;;5086522;28;20196;-83
2022/07/10 12:40:52;;;;;;;1.08;0.60;;;;;;;;;;5086550;28;20592;-86
2022/07/10 12:43:27;;;;;;;1.15;1.00;;;;;;;;;;5086066;28;20288;-81
2022/07/10 12:46:14;;;;;;;1.20;1.02;;;;;;;;;;5086782;28;20197;-86
2022/07/10 12:48:44;;;;;;;2.15;1.13;;;;;;;;;;5087962;28;20205;-85
2022/07/10 12:51:28;;;;;;;1.13;0.77;;;;;;;;;;5087817;28;20256;-84
2022/07/10 12:53:56;;;;;;;1.80;1.23;;;;;;;;;;5086907;28;20617;-83
2022/07/10 12:56:35;;;;;;;2.00;0.90;;;;;;;;;;5086656;28;20709;-84
2022/07/10 12:59:04;;;;;;;3.00;1.40;;;;;;;;;;5087886;28;20260;-84
2022/07/10 13:01:42;;;;;;;2.75;1.40;;;;;;;;;;5086925;28;20228;-80
2022/07/10 13:04:10;;;;;;;1.20;1.10;;;;;;;;;;5086531;28;20247;-83
2022/07/10 13:06:40;;;;;;;0.93;0.88;;;;;;;;;;5086381;28;20200;-85
2022/07/10 13:09:23;;;;;;;1.00;0.90;;;;;;;;;;5087160;28;20291;-84
2022/07/10 13:11:52;;;;;;;1.00;0.90;;;;;;;;;;5085756;28;20737;-85
2022/07/10 13:14:20;;;;;;;0.90;0.90;;;;;;;;;;5087607;28;20275;-84
2022/07/10 13:16:48;;;;;;;1.13;0.93;;;;;;;;;;5086836;28;20468;-84
2022/07/10 13:19:15;;;;;;;1.63;0.80;;;;;;;;;;5086718;28;20200;-85
2022/07/10 13:21:44;;;;;;;1.33;1.00;;;;;;;;;;5086748;28;20221;-85
2022/07/10 13:24:12;;;;;;;3.83;1.00;;;;;;;;;;5080223;28;20201;-84
2022/07/10 13:26:40;;;;;;;4.70;1.20;;;;;;;;;;5084922;28;20677;-86
2022/07/10 13:29:07;;;;;;;2.17;1.10;;;;;;;;;;5077266;28;20197;-85
2022/07/10 13:31:35;;;;;;;1.15;0.80;;;;;;;;;;5111879;23;20224;-80
2022/07/10 13:34:03;;;;;;;1.30;0.98;;;;;;;;;;5101615;28;20208;-79
2022/07/10 13:36:31;;;;;;;0.80;0.80;;;;;;;;;;5099451;28;20267;-82
2022/07/10 13:38:59;;;;;;;0.93;0.88;;;;;;;;;;5098334;28;20196;-82
2022/07/10 13:41:27;;;;;;;1.15;0.82;;;;;;;;;;5097523;28;20220;-82
2022/07/10 13:43:55;;;;;;;0.95;0.90;;;;;;;;;;5088480;28;20219;-81
2022/07/10 13:46:22;;;;;;;1.75;0.88;;;;;;;;;;5100795;28;20197;-80
2022/07/10 13:48:50;;;;;;;0.60;0.60;;;;;;;;;;5100666;28;20204;-81
2022/07/10 13:51:18;;;;;;;2.85;1.10;;;;;;;;;;5099331;28;20220;-81
2022/07/10 13:53:45;;;;;;;1.15;0.95;;;;;;;;;;5099101;28;20204;-81
2022/07/10 13:56:14;;;;;;;1.88;0.88;;;;;;;;;;5099792;28;20299;-80
2022/07/10 13:58:42;;;;;;;2.50;0.90;;;;;;;;;;5100097;28;20287;-82
2022/07/10 14:01:09;;;;;;;3.90;1.40;;;;;;;;;;5100502;28;20258;-81
2022/07/10 14:03:37;;;;;;;0.80;0.80;;;;;;;;;;5099051;28;20292;-81
2022/07/10 14:06:04;;;;;;;0.90;0.73;;;;;;;;;;5066633;28;20228;-82
2022/07/10 14:08:32;;;;;;;2.15;0.70;;;;;;;;;;5060456;28;20242;-81
2022/07/10 14:11:00;;;;;;;1.00;0.90;;;;;;;;;;5059048;28;20253;-82
2022/07/10 14:13:29;;;;;;;0.80;0.80;;;;;;;;;;5059771;28;20202;-81
2022/07/10 14:15:56;;;;;;;0.90;0.60;;;;;;;;;;5058361;28;20225;-83
2022/07/10 14:18:37;;;;;;;0.70;0.70;;;;;;;;;;5058890;28;20260;-79
2022/07/10 14:21:08;;;;;;;1.27;0.75;;;;;;;;;;5061860;28;20221;-82
2022/07/10 14:23:41;;;;;;;2.22;0.98;;;;;;;;;;5057841;28;20268;-82
2022/07/10 14:26:09;;;;;;;1.27;1.00;;;;;;;;;;5057411;28;20205;-83
2022/07/10 14:28:38;;;;;;;2.50;1.67;;;;;;;;;;5057477;28;20647;-83
2022/07/10 14:31:07;;;;;;;1.38;1.00;;;;;;;;;;5057508;28;20221;-81
2022/07/10 14:33:35;;;;;;;2.45;1.00;;;;;;;;;;5057210;28;20637;-82
2022/07/10 14:36:03;;;;;;;1.58;0.90;;;;;;;;;;5072724;28;20220;-82
2022/07/10 14:38:31;;;;;;;2.03;0.80;;;;;;;;;;5076839;28;20274;-82
2022/07/10 14:40:59;;;;;;;1.05;0.77;;;;;;;;;;5077842;28;20772;-81
2022/07/10 14:43:27;;;;;;;2.30;1.10;;;;;;;;;;5076751;28;20205;-82
2022/07/10 14:45:56;;;;;;;0.70;0.70;;;;;;;;;;5078018;28;20673;-83
2022/07/10 14:48:25;;;;;;;0.50;0.50;;;;;;;;;;5077338;28;20197;-81
2022/07/10 14:50:52;;;;;;;0.70;0.70;;;;;;;;;;5077956;28;20274;-81
2022/07/10 14:53:20;;;;;;;1.40;0.70;;;;;;;;;;5078947;28;20204;-83
2022/07/10 14:55:48;;;;;;;0.80;0.80;;;;;;;;;;5078428;28;20258;-82
2022/07/10 14:58:15;;;;;;;0.63;0.63;;;;;;;;;;5078169;28;20217;-82
2022/07/10 15:00:43;;;;;;;0.85;0.60;;;;;;;;;;5078895;28;20679;-82
2022/07/10 15:03:12;;;;;;;1.20;0.77;;;;;;;;;;5068606;28;20284;-81
2022/07/10 15:05:39;;;;;;;0.75;0.75;;;;;;;;;;5071386;28;20208;-81
2022/07/10 15:08:07;;;;;;;0.80;0.80;;;;;;;;;;5077922;28;20227;-81
2022/07/10 15:10:34;;;;;;;1.55;0.85;;;;;;;;;;5078081;28;20285;-81